sensor_id;sensor_type;location;lat;lon;timestamp;P1;durP1;ratioP1;P2;durP2;ratioP2
64826;SDS011;51265;53.972;12.286;2023-07-22T00:00:32;7.78;;;3.55;;
64826;SDS011;51265;53.972;12.286;2023-07-22T00:02:58;5.85;;;4.38;;
64826;SDS011;51265;53.972;12.286;2023-07-22T00:05:25;8.30;;;5.88;;
64826;SDS011;51265;53.972;12.286;2023-07-22T00:07:51;14.23;;;6.85;;
64826;SDS011;51265;53.972;12.286;2023-07-22T00:10:18;6.30;;;4.88;;
64826;SDS011;51265;53.972;12.286;2023-07-22T00:12:44;9.10;;;6.30;;
64826;SDS011;51265;53.972;12.286;2023-07-22T00:15:10;7.35;;;5.32;;
64826;SDS011;51265;53.972;12.286;2023-07-22T00:17:40;13.68;;;6.55;;
64826;SDS011;51265;53.972;12.286;2023-07-22T00:20:12;11.93;;;6.70;;
64826;SDS011;51265;53.972;12.286;2023-07-22T00:22:39;7.72;;;5.20;;
64826;SDS011;51265;53.972;12.286;2023-07-22T00:25:07;10.23;;;5.13;;
64826;SDS011;51265;53.972;12.286;2023-07-22T00:27:37;11.38;;;5.00;;
64826;SDS011;51265;53.972;12.286;2023-07-22T00:30:07;7.55;;;4.57;;
64826;SDS011;51265;53.972;12.286;2023-07-22T00:32:34;7.40;;;4.03;;
64826;SDS011;51265;53.972;12.286;2023-07-22T00:35:03;8.93;;;4.25;;
64826;SDS011;51265;53.972;12.286;2023-07-22T00:37:31;6.57;;;4.22;;
64826;SDS011;51265;53.972;12.286;2023-07-22T00:39:58;5.60;;;3.38;;
64826;SDS011;51265;53.972;12.286;2023-07-22T00:42:24;7.25;;;4.13;;
64826;SDS011;51265;53.972;12.286;2023-07-22T00:44:51;6.28;;;3.40;;
64826;SDS011;51265;53.972;12.286;2023-07-22T00:47:17;7.80;;;4.10;;
64826;SDS011;51265;53.972;12.286;2023-07-22T00:49:46;6.55;;;3.75;;
64826;SDS011;51265;53.972;12.286;2023-07-22T00:52:14;6.50;;;3.65;;
64826;SDS011;51265;53.972;12.286;2023-07-22T00:54:42;7.88;;;4.28;;
64826;SDS011;51265;53.972;12.286;2023-07-22T00:57:09;5.97;;;4.15;;
64826;SDS011;51265;53.972;12.286;2023-07-22T00:59:38;5.22;;;3.60;;
64826;SDS011;51265;53.972;12.286;2023-07-22T01:02:05;7.93;;;4.22;;
64826;SDS011;51265;53.972;12.286;2023-07-22T01:04:32;7.03;;;3.97;;
64826;SDS011;51265;53.972;12.286;2023-07-22T01:07:00;7.63;;;4.57;;
64826;SDS011;51265;53.972;12.286;2023-07-22T01:09:46;7.05;;;4.30;;
64826;SDS011;51265;53.972;12.286;2023-07-22T01:12:13;6.63;;;4.30;;
64826;SDS011;51265;53.972;12.286;2023-07-22T01:14:40;10.48;;;5.07;;
64826;SDS011;51265;53.972;12.286;2023-07-22T01:17:08;11.02;;;6.07;;
64826;SDS011;51265;53.972;12.286;2023-07-22T01:19:36;11.90;;;6.30;;
64826;SDS011;51265;53.972;12.286;2023-07-22T01:22:03;11.93;;;6.78;;
64826;SDS011;51265;53.972;12.286;2023-07-22T01:24:33;10.50;;;6.93;;
64826;SDS011;51265;53.972;12.286;2023-07-22T01:27:00;12.70;;;6.80;;
64826;SDS011;51265;53.972;12.286;2023-07-22T01:29:26;16.73;;;7.88;;
64826;SDS011;51265;53.972;12.286;2023-07-22T01:31:53;15.60;;;7.78;;
64826;SDS011;51265;53.972;12.286;2023-07-22T01:34:21;13.55;;;8.35;;
64826;SDS011;51265;53.972;12.286;2023-07-22T01:36:48;15.85;;;9.05;;
64826;SDS011;51265;53.972;12.286;2023-07-22T01:39:15;13.23;;;8.43;;
64826;SDS011;51265;53.972;12.286;2023-07-22T01:41:42;15.35;;;9.23;;
64826;SDS011;51265;53.972;12.286;2023-07-22T01:44:09;15.25;;;9.75;;
64826;SDS011;51265;53.972;12.286;2023-07-22T01:46:35;15.25;;;9.60;;
64826;SDS011;51265;53.972;12.286;2023-07-22T01:49:04;18.58;;;10.15;;
64826;SDS011;51265;53.972;12.286;2023-07-22T01:51:34;15.80;;;10.13;;
64826;SDS011;51265;53.972;12.286;2023-07-22T01:54:00;20.65;;;10.20;;
64826;SDS011;51265;53.972;12.286;2023-07-22T01:56:26;24.48;;;11.18;;
64826;SDS011;51265;53.972;12.286;2023-07-22T01:58:53;22.15;;;10.20;;
64826;SDS011;51265;53.972;12.286;2023-07-22T02:01:19;18.70;;;10.05;;
64826;SDS011;51265;53.972;12.286;2023-07-22T02:03:45;25.95;;;11.07;;
64826;SDS011;51265;53.972;12.286;2023-07-22T02:06:12;22.38;;;11.40;;
64826;SDS011;51265;53.972;12.286;2023-07-22T02:08:38;17.90;;;10.43;;
64826;SDS011;51265;53.972;12.286;2023-07-22T02:11:05;28.38;;;11.90;;
64826;SDS011;51265;53.972;12.286;2023-07-22T02:13:33;28.73;;;11.52;;
64826;SDS011;51265;53.972;12.286;2023-07-22T02:16:00;26.55;;;12.27;;
64826;SDS011;51265;53.972;12.286;2023-07-22T02:18:27;23.00;;;11.70;;
64826;SDS011;51265;53.972;12.286;2023-07-22T02:20:53;28.35;;;11.95;;
64826;SDS011;51265;53.972;12.286;2023-07-22T02:23:21;27.92;;;13.25;;
64826;SDS011;51265;53.972;12.286;2023-07-22T02:25:48;25.27;;;12.90;;
64826;SDS011;51265;53.972;12.286;2023-07-22T02:28:16;30.60;;;13.05;;
64826;SDS011;51265;53.972;12.286;2023-07-22T02:30:47;28.55;;;12.90;;
64826;SDS011;51265;53.972;12.286;2023-07-22T02:33:13;33.40;;;13.02;;
64826;SDS011;51265;53.972;12.286;2023-07-22T02:35:42;31.73;;;13.38;;
64826;SDS011;51265;53.972;12.286;2023-07-22T02:38:09;28.77;;;12.63;;
64826;SDS011;51265;53.972;12.286;2023-07-22T02:40:36;26.95;;;12.32;;
64826;SDS011;51265;53.972;12.286;2023-07-22T02:43:03;33.38;;;13.77;;
64826;SDS011;51265;53.972;12.286;2023-07-22T02:45:29;31.50;;;13.70;;
64826;SDS011;51265;53.972;12.286;2023-07-22T02:47:55;28.17;;;13.82;;
64826;SDS011;51265;53.972;12.286;2023-07-22T02:50:22;37.63;;;13.90;;
64826;SDS011;51265;53.972;12.286;2023-07-22T02:52:48;29.90;;;14.57;;
64826;SDS011;51265;53.972;12.286;2023-07-22T02:55:15;35.33;;;16.05;;
64826;SDS011;51265;53.972;12.286;2023-07-22T02:57:45;38.35;;;15.50;;
64826;SDS011;51265;53.972;12.286;2023-07-22T03:00:12;39.78;;;16.50;;
64826;SDS011;51265;53.972;12.286;2023-07-22T03:02:43;38.63;;;16.65;;
64826;SDS011;51265;53.972;12.286;2023-07-22T03:05:10;37.88;;;16.88;;
64826;SDS011;51265;53.972;12.286;2023-07-22T03:07:37;40.95;;;17.40;;
64826;SDS011;51265;53.972;12.286;2023-07-22T03:10:05;43.65;;;17.85;;
64826;SDS011;51265;53.972;12.286;2023-07-22T03:12:33;46.72;;;17.83;;
64826;SDS011;51265;53.972;12.286;2023-07-22T03:15:00;51.85;;;18.50;;
64826;SDS011;51265;53.972;12.286;2023-07-22T03:17:26;46.78;;;18.52;;
64826;SDS011;51265;53.972;12.286;2023-07-22T03:19:53;43.95;;;17.65;;
64826;SDS011;51265;53.972;12.286;2023-07-22T03:22:19;46.33;;;18.65;;
64826;SDS011;51265;53.972;12.286;2023-07-22T03:24:45;50.17;;;18.58;;
64826;SDS011;51265;53.972;12.286;2023-07-22T03:27:12;49.45;;;18.70;;
64826;SDS011;51265;53.972;12.286;2023-07-22T03:29:40;55.10;;;19.92;;
64826;SDS011;51265;53.972;12.286;2023-07-22T03:32:07;46.00;;;18.90;;
64826;SDS011;51265;53.972;12.286;2023-07-22T03:34:34;44.92;;;20.60;;
64826;SDS011;51265;53.972;12.286;2023-07-22T03:37:00;60.55;;;20.30;;
64826;SDS011;51265;53.972;12.286;2023-07-22T03:39:27;46.03;;;19.05;;
64826;SDS011;51265;53.972;12.286;2023-07-22T03:41:53;48.85;;;20.45;;
64826;SDS011;51265;53.972;12.286;2023-07-22T03:44:19;46.78;;;19.77;;
64826;SDS011;51265;53.972;12.286;2023-07-22T03:46:45;46.17;;;20.75;;
64826;SDS011;51265;53.972;12.286;2023-07-22T03:49:11;53.83;;;22.40;;
64826;SDS011;51265;53.972;12.286;2023-07-22T03:51:38;60.95;;;22.98;;
64826;SDS011;51265;53.972;12.286;2023-07-22T03:54:04;64.55;;;24.90;;
64826;SDS011;51265;53.972;12.286;2023-07-22T03:56:30;63.35;;;25.63;;
64826;SDS011;51265;53.972;12.286;2023-07-22T03:58:56;54.97;;;26.80;;
64826;SDS011;51265;53.972;12.286;2023-07-22T04:01:22;74.07;;;28.58;;
64826;SDS011;51265;53.972;12.286;2023-07-22T04:03:49;66.35;;;27.30;;
64826;SDS011;51265;53.972;12.286;2023-07-22T04:06:15;64.65;;;27.95;;
64826;SDS011;51265;53.972;12.286;2023-07-22T04:08:41;66.35;;;29.23;;
64826;SDS011;51265;53.972;12.286;2023-07-22T04:11:07;71.45;;;29.92;;
64826;SDS011;51265;53.972;12.286;2023-07-22T04:13:33;73.88;;;29.98;;
64826;SDS011;51265;53.972;12.286;2023-07-22T04:16:00;66.90;;;29.50;;
64826;SDS011;51265;53.972;12.286;2023-07-22T04:18:28;69.38;;;29.40;;
64826;SDS011;51265;53.972;12.286;2023-07-22T04:21:00;58.35;;;29.38;;
64826;SDS011;51265;53.972;12.286;2023-07-22T04:23:26;63.80;;;28.45;;
64826;SDS011;51265;53.972;12.286;2023-07-22T04:25:53;66.15;;;29.40;;
64826;SDS011;51265;53.972;12.286;2023-07-22T04:28:19;63.22;;;28.80;;
64826;SDS011;51265;53.972;12.286;2023-07-22T04:30:54;59.95;;;28.67;;
64826;SDS011;51265;53.972;12.286;2023-07-22T04:33:21;60.97;;;29.05;;
64826;SDS011;51265;53.972;12.286;2023-07-22T04:35:47;65.55;;;27.83;;
64826;SDS011;51265;53.972;12.286;2023-07-22T04:38:14;67.57;;;28.80;;
64826;SDS011;51265;53.972;12.286;2023-07-22T04:40:43;60.63;;;28.58;;
64826;SDS011;51265;53.972;12.286;2023-07-22T04:43:09;54.28;;;25.73;;
64826;SDS011;51265;53.972;12.286;2023-07-22T04:45:36;76.20;;;29.92;;
64826;SDS011;51265;53.972;12.286;2023-07-22T04:48:02;61.65;;;27.13;;
64826;SDS011;51265;53.972;12.286;2023-07-22T04:50:28;64.97;;;28.15;;
64826;SDS011;51265;53.972;12.286;2023-07-22T04:52:54;67.78;;;28.85;;
64826;SDS011;51265;53.972;12.286;2023-07-22T04:55:20;53.03;;;25.95;;
64826;SDS011;51265;53.972;12.286;2023-07-22T04:57:47;49.53;;;24.95;;
64826;SDS011;51265;53.972;12.286;2023-07-22T05:00:13;59.72;;;26.75;;
64826;SDS011;51265;53.972;12.286;2023-07-22T05:02:42;62.47;;;26.58;;
64826;SDS011;51265;53.972;12.286;2023-07-22T05:05:12;69.32;;;26.67;;
64826;SDS011;51265;53.972;12.286;2023-07-22T05:07:38;60.42;;;26.05;;
64826;SDS011;51265;53.972;12.286;2023-07-22T05:10:05;57.75;;;25.52;;
64826;SDS011;51265;53.972;12.286;2023-07-22T05:12:38;47.22;;;23.33;;
64826;SDS011;51265;53.972;12.286;2023-07-22T05:15:05;52.30;;;23.50;;
64826;SDS011;51265;53.972;12.286;2023-07-22T05:17:32;49.10;;;23.38;;
64826;SDS011;51265;53.972;12.286;2023-07-22T05:19:58;57.30;;;23.48;;
64826;SDS011;51265;53.972;12.286;2023-07-22T05:22:24;47.10;;;23.48;;
64826;SDS011;51265;53.972;12.286;2023-07-22T05:24:51;54.70;;;24.13;;
64826;SDS011;51265;53.972;12.286;2023-07-22T05:27:17;56.63;;;24.73;;
64826;SDS011;51265;53.972;12.286;2023-07-22T05:29:44;54.53;;;23.50;;
64826;SDS011;51265;53.972;12.286;2023-07-22T05:32:11;52.05;;;23.95;;
64826;SDS011;51265;53.972;12.286;2023-07-22T05:34:37;48.92;;;21.70;;
64826;SDS011;51265;53.972;12.286;2023-07-22T05:37:03;54.30;;;22.60;;
64826;SDS011;51265;53.972;12.286;2023-07-22T05:39:29;47.88;;;22.45;;
64826;SDS011;51265;53.972;12.286;2023-07-22T05:42:10;43.13;;;21.73;;
64826;SDS011;51265;53.972;12.286;2023-07-22T05:44:36;43.80;;;21.55;;
64826;SDS011;51265;53.972;12.286;2023-07-22T05:47:02;48.97;;;22.05;;
64826;SDS011;51265;53.972;12.286;2023-07-22T05:49:28;52.47;;;22.52;;
64826;SDS011;51265;53.972;12.286;2023-07-22T05:51:54;46.17;;;22.65;;
64826;SDS011;51265;53.972;12.286;2023-07-22T05:54:21;40.58;;;21.00;;
64826;SDS011;51265;53.972;12.286;2023-07-22T05:56:47;34.90;;;19.95;;
64826;SDS011;51265;53.972;12.286;2023-07-22T05:59:13;40.35;;;20.55;;
64826;SDS011;51265;53.972;12.286;2023-07-22T06:01:39;41.58;;;19.88;;
64826;SDS011;51265;53.972;12.286;2023-07-22T06:04:06;39.95;;;20.15;;
64826;SDS011;51265;53.972;12.286;2023-07-22T06:06:32;36.65;;;17.92;;
64826;SDS011;51265;53.972;12.286;2023-07-22T06:08:58;35.08;;;18.77;;
64826;SDS011;51265;53.972;12.286;2023-07-22T06:11:25;36.08;;;18.23;;
64826;SDS011;51265;53.972;12.286;2023-07-22T06:13:51;36.42;;;18.88;;
64826;SDS011;51265;53.972;12.286;2023-07-22T06:16:17;29.02;;;16.95;;
64826;SDS011;51265;53.972;12.286;2023-07-22T06:18:44;31.20;;;16.90;;
64826;SDS011;51265;53.972;12.286;2023-07-22T06:21:10;27.10;;;15.32;;
64826;SDS011;51265;53.972;12.286;2023-07-22T06:23:36;26.30;;;13.93;;
64826;SDS011;51265;53.972;12.286;2023-07-22T06:26:03;27.52;;;14.50;;
64826;SDS011;51265;53.972;12.286;2023-07-22T06:28:29;28.05;;;13.57;;
64826;SDS011;51265;53.972;12.286;2023-07-22T06:30:55;24.08;;;14.05;;
64826;SDS011;51265;53.972;12.286;2023-07-22T06:33:21;29.42;;;14.75;;
64826;SDS011;51265;53.972;12.286;2023-07-22T06:35:47;26.98;;;14.45;;
64826;SDS011;51265;53.972;12.286;2023-07-22T06:38:14;26.55;;;14.05;;
64826;SDS011;51265;53.972;12.286;2023-07-22T06:40:40;24.20;;;12.70;;
64826;SDS011;51265;53.972;12.286;2023-07-22T06:43:06;23.58;;;12.32;;
64826;SDS011;51265;53.972;12.286;2023-07-22T06:45:34;18.48;;;11.88;;
64826;SDS011;51265;53.972;12.286;2023-07-22T06:48:01;18.88;;;11.98;;
64826;SDS011;51265;53.972;12.286;2023-07-22T06:50:27;17.95;;;10.45;;
64826;SDS011;51265;53.972;12.286;2023-07-22T06:52:53;24.85;;;10.95;;
64826;SDS011;51265;53.972;12.286;2023-07-22T06:55:19;22.33;;;10.32;;
64826;SDS011;51265;53.972;12.286;2023-07-22T06:57:48;18.38;;;9.70;;
64826;SDS011;51265;53.972;12.286;2023-07-22T07:00:14;17.33;;;9.50;;
64826;SDS011;51265;53.972;12.286;2023-07-22T07:02:41;17.08;;;9.57;;
64826;SDS011;51265;53.972;12.286;2023-07-22T07:05:07;15.55;;;9.75;;
64826;SDS011;51265;53.972;12.286;2023-07-22T07:07:33;23.02;;;8.40;;
64826;SDS011;51265;53.972;12.286;2023-07-22T07:10:00;14.48;;;8.77;;
64826;SDS011;51265;53.972;12.286;2023-07-22T07:12:26;16.73;;;8.48;;
64826;SDS011;51265;53.972;12.286;2023-07-22T07:14:52;14.52;;;8.35;;
64826;SDS011;51265;53.972;12.286;2023-07-22T07:17:19;14.63;;;7.75;;
64826;SDS011;51265;53.972;12.286;2023-07-22T07:19:45;17.98;;;8.40;;
64826;SDS011;51265;53.972;12.286;2023-07-22T07:22:11;12.18;;;7.07;;
64826;SDS011;51265;53.972;12.286;2023-07-22T07:24:37;13.90;;;6.97;;
64826;SDS011;51265;53.972;12.286;2023-07-22T07:27:04;10.93;;;5.72;;
64826;SDS011;51265;53.972;12.286;2023-07-22T07:29:30;12.13;;;5.32;;
64826;SDS011;51265;53.972;12.286;2023-07-22T07:31:56;8.85;;;5.50;;
64826;SDS011;51265;53.972;12.286;2023-07-22T07:34:23;10.27;;;4.88;;
64826;SDS011;51265;53.972;12.286;2023-07-22T07:36:49;10.68;;;5.38;;
64826;SDS011;51265;53.972;12.286;2023-07-22T07:39:15;9.80;;;4.75;;
64826;SDS011;51265;53.972;12.286;2023-07-22T07:41:41;8.20;;;4.80;;
64826;SDS011;51265;53.972;12.286;2023-07-22T07:44:08;7.22;;;4.85;;
64826;SDS011;51265;53.972;12.286;2023-07-22T07:46:34;13.10;;;4.90;;
64826;SDS011;51265;53.972;12.286;2023-07-22T07:49:01;8.63;;;4.43;;
64826;SDS011;51265;53.972;12.286;2023-07-22T07:51:28;9.07;;;4.05;;
64826;SDS011;51265;53.972;12.286;2023-07-22T07:53:56;8.45;;;4.18;;
64826;SDS011;51265;53.972;12.286;2023-07-22T07:56:24;6.03;;;3.70;;
64826;SDS011;51265;53.972;12.286;2023-07-22T07:58:52;9.48;;;3.30;;
64826;SDS011;51265;53.972;12.286;2023-07-22T08:01:19;6.15;;;3.40;;
64826;SDS011;51265;53.972;12.286;2023-07-22T08:03:46;8.13;;;3.47;;
64826;SDS011;51265;53.972;12.286;2023-07-22T08:06:13;9.48;;;3.80;;
64826;SDS011;51265;53.972;12.286;2023-07-22T08:08:39;6.95;;;3.85;;
64826;SDS011;51265;53.972;12.286;2023-07-22T08:11:10;6.90;;;3.40;;
64826;SDS011;51265;53.972;12.286;2023-07-22T08:13:39;6.80;;;3.05;;
64826;SDS011;51265;53.972;12.286;2023-07-22T08:16:07;7.15;;;3.00;;
64826;SDS011;51265;53.972;12.286;2023-07-22T08:18:35;7.18;;;3.17;;
64826;SDS011;51265;53.972;12.286;2023-07-22T08:21:03;4.70;;;2.80;;
64826;SDS011;51265;53.972;12.286;2023-07-22T08:23:31;6.55;;;2.70;;
64826;SDS011;51265;53.972;12.286;2023-07-22T08:25:57;6.30;;;2.90;;
64826;SDS011;51265;53.972;12.286;2023-07-22T08:28:23;5.65;;;2.60;;
64826;SDS011;51265;53.972;12.286;2023-07-22T08:30:50;5.80;;;2.58;;
64826;SDS011;51265;53.972;12.286;2023-07-22T08:33:16;10.88;;;2.97;;
64826;SDS011;51265;53.972;12.286;2023-07-22T08:35:42;7.47;;;2.50;;
64826;SDS011;51265;53.972;12.286;2023-07-22T08:38:09;3.72;;;2.40;;
64826;SDS011;51265;53.972;12.286;2023-07-22T08:40:36;9.43;;;2.20;;
64826;SDS011;51265;53.972;12.286;2023-07-22T08:43:04;3.97;;;2.35;;
64826;SDS011;51265;53.972;12.286;2023-07-22T08:45:32;4.25;;;2.20;;
64826;SDS011;51265;53.972;12.286;2023-07-22T08:48:06;7.63;;;2.83;;
64826;SDS011;51265;53.972;12.286;2023-07-22T08:50:34;3.63;;;1.85;;
64826;SDS011;51265;53.972;12.286;2023-07-22T08:53:11;5.07;;;2.15;;
64826;SDS011;51265;53.972;12.286;2023-07-22T08:55:38;3.38;;;1.70;;
64826;SDS011;51265;53.972;12.286;2023-07-22T08:58:08;5.20;;;1.70;;
64826;SDS011;51265;53.972;12.286;2023-07-22T09:00:35;4.85;;;1.90;;
64826;SDS011;51265;53.972;12.286;2023-07-22T09:03:02;8.45;;;2.50;;
64826;SDS011;51265;53.972;12.286;2023-07-22T09:05:33;5.13;;;2.15;;
64826;SDS011;51265;53.972;12.286;2023-07-22T09:08:04;4.53;;;1.75;;
64826;SDS011;51265;53.972;12.286;2023-07-22T09:10:33;4.45;;;1.90;;
64826;SDS011;51265;53.972;12.286;2023-07-22T09:13:00;4.68;;;1.40;;
64826;SDS011;51265;53.972;12.286;2023-07-22T09:15:27;3.65;;;1.80;;
64826;SDS011;51265;53.972;12.286;2023-07-22T09:17:53;3.40;;;1.40;;
64826;SDS011;51265;53.972;12.286;2023-07-22T09:20:20;3.42;;;1.10;;
64826;SDS011;51265;53.972;12.286;2023-07-22T09:22:49;2.45;;;0.82;;
64826;SDS011;51265;53.972;12.286;2023-07-22T09:25:23;6.38;;;1.20;;
64826;SDS011;51265;53.972;12.286;2023-07-22T09:27:52;7.68;;;1.20;;
64826;SDS011;51265;53.972;12.286;2023-07-22T09:32:54;4.05;;;1.15;;
64826;SDS011;51265;53.972;12.286;2023-07-22T09:35:22;3.72;;;1.50;;
64826;SDS011;51265;53.972;12.286;2023-07-22T09:37:50;1.90;;;1.17;;
64826;SDS011;51265;53.972;12.286;2023-07-22T09:40:23;3.05;;;1.00;;
64826;SDS011;51265;53.972;12.286;2023-07-22T09:42:52;2.33;;;1.17;;
64826;SDS011;51265;53.972;12.286;2023-07-22T09:45:22;1.42;;;0.90;;
64826;SDS011;51265;53.972;12.286;2023-07-22T09:47:51;2.55;;;1.40;;
64826;SDS011;51265;53.972;12.286;2023-07-22T09:50:19;1.67;;;0.95;;
64826;SDS011;51265;53.972;12.286;2023-07-22T09:52:50;2.15;;;1.15;;
64826;SDS011;51265;53.972;12.286;2023-07-22T09:55:25;6.35;;;0.70;;
64826;SDS011;51265;53.972;12.286;2023-07-22T09:57:57;1.92;;;0.70;;
64826;SDS011;51265;53.972;12.286;2023-07-22T10:00:36;5.97;;;1.00;;
64826;SDS011;51265;53.972;12.286;2023-07-22T10:03:04;2.90;;;0.82;;
64826;SDS011;51265;53.972;12.286;2023-07-22T10:05:35;2.77;;;1.10;;
64826;SDS011;51265;53.972;12.286;2023-07-22T10:08:05;2.50;;;0.70;;
64826;SDS011;51265;53.972;12.286;2023-07-22T10:12:59;1.70;;;0.77;;
64826;SDS011;51265;53.972;12.286;2023-07-22T10:15:28;1.60;;;0.90;;
64826;SDS011;51265;53.972;12.286;2023-07-22T10:17:56;2.35;;;0.70;;
64826;SDS011;51265;53.972;12.286;2023-07-22T10:20:23;1.67;;;0.70;;
64826;SDS011;51265;53.972;12.286;2023-07-22T10:22:50;1.63;;;0.88;;
64826;SDS011;51265;53.972;12.286;2023-07-22T10:25:18;6.60;;;1.02;;
64826;SDS011;51265;53.972;12.286;2023-07-22T10:27:45;1.13;;;0.70;;
64826;SDS011;51265;53.972;12.286;2023-07-22T10:30:13;2.13;;;1.10;;
64826;SDS011;51265;53.972;12.286;2023-07-22T10:32:42;3.08;;;0.65;;
64826;SDS011;51265;53.972;12.286;2023-07-22T10:35:10;2.97;;;0.90;;
64826;SDS011;51265;53.972;12.286;2023-07-22T10:37:40;1.23;;;0.77;;
64826;SDS011;51265;53.972;12.286;2023-07-22T10:43:18;2.42;;;0.70;;
64826;SDS011;51265;53.972;12.286;2023-07-22T10:45:41;2.05;;;1.00;;
64826;SDS011;51265;53.972;12.286;2023-07-22T10:48:10;2.78;;;0.90;;
64826;SDS011;51265;53.972;12.286;2023-07-22T10:50:41;3.88;;;1.17;;
64826;SDS011;51265;53.972;12.286;2023-07-22T11:04:11;3.08;;;1.00;;
64826;SDS011;51265;53.972;12.286;2023-07-22T11:07:03;3.95;;;1.05;;
64826;SDS011;51265;53.972;12.286;2023-07-22T11:12:01;1.38;;;0.70;;
64826;SDS011;51265;53.972;12.286;2023-07-22T11:14:30;0.85;;;0.60;;
64826;SDS011;51265;53.972;12.286;2023-07-22T11:17:01;1.02;;;0.45;;
64826;SDS011;51265;53.972;12.286;2023-07-22T11:19:31;2.60;;;0.50;;
64826;SDS011;51265;53.972;12.286;2023-07-22T11:21:58;1.27;;;0.70;;
64826;SDS011;51265;53.972;12.286;2023-07-22T11:24:25;1.33;;;0.70;;
64826;SDS011;51265;53.972;12.286;2023-07-22T11:26:51;1.75;;;0.60;;
64826;SDS011;51265;53.972;12.286;2023-07-22T11:29:18;0.98;;;0.63;;
64826;SDS011;51265;53.972;12.286;2023-07-22T11:31:46;1.70;;;0.70;;
64826;SDS011;51265;53.972;12.286;2023-07-22T11:34:20;5.55;;;0.75;;
64826;SDS011;51265;53.972;12.286;2023-07-22T11:36:49;0.90;;;0.50;;
64826;SDS011;51265;53.972;12.286;2023-07-22T11:39:17;0.88;;;0.60;;
64826;SDS011;51265;53.972;12.286;2023-07-22T11:41:45;0.88;;;0.50;;
64826;SDS011;51265;53.972;12.286;2023-07-22T11:44:14;4.45;;;0.90;;
64826;SDS011;51265;53.972;12.286;2023-07-22T11:49:25;1.10;;;0.70;;
64826;SDS011;51265;53.972;12.286;2023-07-22T11:51:56;1.75;;;0.80;;
64826;SDS011;51265;53.972;12.286;2023-07-22T11:54:24;4.30;;;0.90;;
64826;SDS011;51265;53.972;12.286;2023-07-22T11:56:50;3.60;;;0.82;;
64826;SDS011;51265;53.972;12.286;2023-07-22T11:59:16;2.08;;;0.60;;
64826;SDS011;51265;53.972;12.286;2023-07-22T12:01:43;1.65;;;0.73;;
64826;SDS011;51265;53.972;12.286;2023-07-22T12:04:14;2.45;;;1.10;;
64826;SDS011;51265;53.972;12.286;2023-07-22T12:06:40;2.22;;;1.10;;
64826;SDS011;51265;53.972;12.286;2023-07-22T12:09:08;2.55;;;1.17;;
64826;SDS011;51265;53.972;12.286;2023-07-22T12:11:36;4.20;;;1.27;;
64826;SDS011;51265;53.972;12.286;2023-07-22T12:14:09;4.07;;;1.10;;
64826;SDS011;51265;53.972;12.286;2023-07-22T12:16:42;24.70;;;16.67;;
64826;SDS011;51265;53.972;12.286;2023-07-22T12:19:09;3.15;;;1.20;;
64826;SDS011;51265;53.972;12.286;2023-07-22T12:21:35;2.25;;;1.00;;
64826;SDS011;51265;53.972;12.286;2023-07-22T12:24:01;2.42;;;1.00;;
64826;SDS011;51265;53.972;12.286;2023-07-22T12:26:29;2.00;;;0.98;;
64826;SDS011;51265;53.972;12.286;2023-07-22T12:28:56;3.38;;;0.70;;
64826;SDS011;51265;53.972;12.286;2023-07-22T12:31:22;1.15;;;0.55;;
64826;SDS011;51265;53.972;12.286;2023-07-22T12:33:48;3.67;;;0.50;;
64826;SDS011;51265;53.972;12.286;2023-07-22T12:36:14;1.40;;;0.40;;
64826;SDS011;51265;53.972;12.286;2023-07-22T12:38:40;0.80;;;0.40;;
64826;SDS011;51265;53.972;12.286;2023-07-22T12:41:07;1.08;;;0.30;;
64826;SDS011;51265;53.972;12.286;2023-07-22T12:43:33;1.30;;;0.40;;
64826;SDS011;51265;53.972;12.286;2023-07-22T12:45:59;0.95;;;0.30;;
64826;SDS011;51265;53.972;12.286;2023-07-22T12:48:25;1.25;;;0.38;;
64826;SDS011;51265;53.972;12.286;2023-07-22T12:50:51;0.57;;;0.30;;
64826;SDS011;51265;53.972;12.286;2023-07-22T12:53:17;0.50;;;0.30;;
64826;SDS011;51265;53.972;12.286;2023-07-22T12:55:44;0.35;;;0.30;;
64826;SDS011;51265;53.972;12.286;2023-07-22T12:58:10;0.98;;;0.40;;
64826;SDS011;51265;53.972;12.286;2023-07-22T13:00:36;1.85;;;0.57;;
64826;SDS011;51265;53.972;12.286;2023-07-22T13:03:02;6.80;;;5.55;;
64826;SDS011;51265;53.972;12.286;2023-07-22T13:05:28;0.85;;;0.28;;
64826;SDS011;51265;53.972;12.286;2023-07-22T13:07:54;1.98;;;0.80;;
64826;SDS011;51265;53.972;12.286;2023-07-22T13:10:21;2.33;;;0.32;;
64826;SDS011;51265;53.972;12.286;2023-07-22T13:12:49;0.93;;;0.28;;
64826;SDS011;51265;53.972;12.286;2023-07-22T13:15:15;1.17;;;0.43;;
64826;SDS011;51265;53.972;12.286;2023-07-22T13:17:41;1.65;;;0.20;;
64826;SDS011;51265;53.972;12.286;2023-07-22T13:20:08;1.05;;;0.40;;
64826;SDS011;51265;53.972;12.286;2023-07-22T13:22:35;0.77;;;0.22;;
64826;SDS011;51265;53.972;12.286;2023-07-22T13:25:02;3.40;;;0.40;;
64826;SDS011;51265;53.972;12.286;2023-07-22T13:27:29;0.77;;;0.30;;
64826;SDS011;51265;53.972;12.286;2023-07-22T13:29:55;1.20;;;0.20;;
64826;SDS011;51265;53.972;12.286;2023-07-22T13:32:21;1.50;;;0.30;;
64826;SDS011;51265;53.972;12.286;2023-07-22T13:34:47;0.65;;;0.20;;
64826;SDS011;51265;53.972;12.286;2023-07-22T13:37:13;0.90;;;0.30;;
64826;SDS011;51265;53.972;12.286;2023-07-22T13:39:40;0.98;;;0.50;;
64826;SDS011;51265;53.972;12.286;2023-07-22T13:42:06;1.17;;;0.60;;
64826;SDS011;51265;53.972;12.286;2023-07-22T13:44:32;3.20;;;0.43;;
64826;SDS011;51265;53.972;12.286;2023-07-22T13:46:58;0.75;;;0.52;;
64826;SDS011;51265;53.972;12.286;2023-07-22T13:49:24;1.85;;;0.45;;
64826;SDS011;51265;53.972;12.286;2023-07-22T13:51:50;0.88;;;0.47;;
64826;SDS011;51265;53.972;12.286;2023-07-22T13:54:17;1.23;;;0.60;;
64826;SDS011;51265;53.972;12.286;2023-07-22T13:56:43;1.35;;;0.60;;
64826;SDS011;51265;53.972;12.286;2023-07-22T13:59:09;3.33;;;0.70;;
64826;SDS011;51265;53.972;12.286;2023-07-22T14:01:35;2.13;;;0.60;;
64826;SDS011;51265;53.972;12.286;2023-07-22T14:04:01;1.88;;;0.50;;
64826;SDS011;51265;53.972;12.286;2023-07-22T14:06:27;6.20;;;0.60;;
64826;SDS011;51265;53.972;12.286;2023-07-22T14:08:54;1.10;;;0.70;;
64826;SDS011;51265;53.972;12.286;2023-07-22T14:11:20;2.47;;;0.80;;
64826;SDS011;51265;53.972;12.286;2023-07-22T14:13:46;3.13;;;0.60;;
64826;SDS011;51265;53.972;12.286;2023-07-22T14:16:12;1.92;;;0.75;;
64826;SDS011;51265;53.972;12.286;2023-07-22T14:18:38;2.65;;;0.50;;
64826;SDS011;51265;53.972;12.286;2023-07-22T14:21:04;2.13;;;0.50;;
64826;SDS011;51265;53.972;12.286;2023-07-22T14:23:31;3.60;;;0.65;;
64826;SDS011;51265;53.972;12.286;2023-07-22T14:25:57;1.15;;;0.57;;
64826;SDS011;51265;53.972;12.286;2023-07-22T14:28:23;2.75;;;0.60;;
64826;SDS011;51265;53.972;12.286;2023-07-22T14:30:49;1.10;;;0.45;;
64826;SDS011;51265;53.972;12.286;2023-07-22T14:33:15;1.55;;;0.50;;
64826;SDS011;51265;53.972;12.286;2023-07-22T14:35:41;3.03;;;0.50;;
64826;SDS011;51265;53.972;12.286;2023-07-22T14:38:07;4.13;;;0.60;;
64826;SDS011;51265;53.972;12.286;2023-07-22T14:40:34;1.17;;;0.47;;
64826;SDS011;51265;53.972;12.286;2023-07-22T14:43:00;1.80;;;0.57;;
64826;SDS011;51265;53.972;12.286;2023-07-22T14:45:26;1.27;;;0.63;;
64826;SDS011;51265;53.972;12.286;2023-07-22T14:47:52;1.70;;;0.57;;